createdAt,value
2022-09-06T00:01:13.672Z,14.50
2022-09-06T00:03:41.723Z,14.52
2022-09-06T00:06:16.619Z,14.50
2022-09-06T00:08:46.196Z,14.50
2022-09-06T00:11:15.827Z,14.50
2022-09-06T00:13:44.298Z,14.50
2022-09-06T00:16:20.480Z,14.48
2022-09-06T00:18:48.151Z,14.44
2022-09-06T00:21:30.586Z,14.42
2022-09-06T00:23:58.274Z,14.44
2022-09-06T00:26:26.405Z,14.50
2022-09-06T00:28:54.154Z,14.50
2022-09-06T00:31:25.769Z,14.50
2022-09-06T00:33:54.081Z,14.50
2022-09-06T00:36:23.261Z,14.50
2022-09-06T00:38:51.004Z,14.50
2022-09-06T00:41:19.139Z,14.50
2022-09-06T00:43:46.978Z,14.40
2022-09-06T00:46:21.543Z,14.40
2022-09-06T00:48:56.399Z,14.40
2022-09-06T00:51:28.389Z,14.40
2022-09-06T00:53:56.869Z,14.40
2022-09-06T00:56:26.508Z,14.40
2022-09-06T00:58:55.649Z,14.40
2022-09-06T01:01:23.384Z,14.32
2022-09-06T01:03:51.180Z,14.30
2022-09-06T01:06:29.000Z,14.30
2022-09-06T01:09:32.135Z,14.30
2022-09-06T01:12:18.811Z,14.22
2022-09-06T01:15:06.523Z,14.20
2022-09-06T01:18:10.394Z,14.20
2022-09-06T01:21:01.576Z,14.10
2022-09-06T01:24:16.253Z,14.10
2022-09-06T01:27:28.143Z,14.10
2022-09-06T01:30:09.974Z,14.20
2022-09-06T01:32:46.621Z,14.20
2022-09-06T01:35:25.226Z,14.12
2022-09-06T01:37:54.104Z,14.10
2022-09-06T01:40:22.224Z,14.06
2022-09-06T01:42:53.471Z,14.00
2022-09-06T01:45:47.175Z,13.90
2022-09-06T01:48:48.118Z,13.90
2022-09-06T01:52:00.346Z,13.88
2022-09-06T01:54:45.934Z,13.80
2022-09-06T01:57:31.115Z,13.70
2022-09-06T02:00:10.970Z,13.72
2022-09-06T02:03:24.649Z,13.70
2022-09-06T02:06:04.038Z,13.70
2022-09-06T02:08:39.376Z,13.70
2022-09-06T02:11:09.955Z,13.70
2022-09-06T02:13:57.615Z,13.70
2022-09-06T02:16:30.235Z,13.70
2022-09-06T02:19:15.352Z,13.66
2022-09-06T02:21:46.322Z,13.70
2022-09-06T02:24:25.777Z,13.70
2022-09-06T02:26:53.667Z,13.60
2022-09-06T02:29:21.625Z,13.60
2022-09-06T02:31:59.288Z,13.60
2022-09-06T02:34:27.483Z,13.60
2022-09-06T02:36:56.032Z,13.60
2022-09-06T02:39:25.056Z,13.60
2022-09-06T02:41:52.823Z,13.60
2022-09-06T02:44:20.512Z,13.64
2022-09-06T02:46:48.144Z,13.60
2022-09-06T02:49:15.752Z,13.60
2022-09-06T02:51:43.352Z,13.60
2022-09-06T02:54:11.075Z,13.60
2022-09-06T02:56:38.714Z,13.60
2022-09-06T02:59:06.662Z,13.60
2022-09-06T03:01:34.460Z,13.70
2022-09-06T03:04:02.814Z,13.66
2022-09-06T03:06:31.601Z,13.68
2022-09-06T03:09:00.205Z,13.70
2022-09-06T03:11:28.454Z,13.70
2022-09-06T03:13:56.106Z,13.70
2022-09-06T03:16:23.832Z,13.70
2022-09-06T03:18:51.498Z,13.70
2022-09-06T03:21:19.226Z,13.60
2022-09-06T03:23:46.926Z,13.60
2022-09-06T03:26:14.532Z,13.60
2022-09-06T03:28:43.220Z,13.60
2022-09-06T03:31:12.151Z,13.60
2022-09-06T03:33:39.907Z,13.60
2022-09-06T03:36:08.512Z,13.60
2022-09-06T03:38:36.172Z,13.54
2022-09-06T03:41:03.876Z,13.60
2022-09-06T03:43:32.220Z,13.60
2022-09-06T03:45:59.969Z,13.60
2022-09-06T03:48:30.377Z,13.60
2022-09-06T03:50:59.380Z,13.60
2022-09-06T03:53:29.523Z,13.50
2022-09-06T03:55:58.291Z,13.50
2022-09-06T03:58:31.701Z,13.42
2022-09-06T04:01:08.685Z,13.40
2022-09-06T04:03:38.283Z,13.40
2022-09-06T04:06:07.709Z,13.40
2022-09-06T04:08:37.285Z,13.30
2022-09-06T04:11:06.195Z,13.30
2022-09-06T04:13:34.967Z,13.20
2022-09-06T04:16:04.792Z,13.20
2022-09-06T04:18:32.748Z,13.10
2022-09-06T04:21:00.439Z,13.02
2022-09-06T04:23:30.013Z,13.00
2022-09-06T04:25:59.336Z,13.00
2022-09-06T04:28:27.926Z,12.90
2022-09-06T04:31:04.057Z,12.90
2022-09-06T04:33:34.828Z,12.80
2022-09-06T04:36:08.076Z,12.80
2022-09-06T04:38:42.467Z,12.80
2022-09-06T04:41:13.953Z,12.80
2022-09-06T04:43:43.261Z,12.80
2022-09-06T04:46:25.199Z,12.80
2022-09-06T04:48:55.220Z,12.80
2022-09-06T04:51:25.591Z,12.80
2022-09-06T04:53:53.974Z,12.80
2022-09-06T04:56:24.887Z,12.84
2022-09-06T04:58:55.385Z,12.84
2022-09-06T05:01:26.288Z,12.80
2022-09-06T05:03:56.973Z,12.90
2022-09-06T05:06:26.092Z,12.90
2022-09-06T05:08:53.683Z,13.00
2022-09-06T05:11:21.486Z,13.04
2022-09-06T05:13:50.428Z,13.16
2022-09-06T05:16:18.346Z,13.20
2022-09-06T05:18:46.257Z,13.30
2022-09-06T05:21:14.232Z,13.30
2022-09-06T05:23:41.908Z,13.42
2022-09-06T05:26:09.585Z,13.50
2022-09-06T05:28:37.385Z,13.60
2022-09-06T05:31:23.820Z,13.60
2022-09-06T05:33:55.661Z,13.70
2022-09-06T05:36:26.285Z,13.80
2022-09-06T05:38:56.209Z,13.90
2022-09-06T05:41:25.331Z,13.90
2022-09-06T05:43:52.966Z,14.02
2022-09-06T05:46:21.580Z,14.10
2022-09-06T05:49:04.710Z,14.20
2022-09-06T05:51:32.901Z,14.30
2022-09-06T05:54:00.576Z,14.40
2022-09-06T05:56:28.329Z,14.50
2022-09-06T05:58:56.117Z,14.60
2022-09-06T06:01:30.168Z,14.74
2022-09-06T06:04:02.233Z,14.90
2022-09-06T06:06:33.409Z,15.00
2022-09-06T06:09:01.528Z,15.10
2022-09-06T06:11:31.304Z,15.20
2022-09-06T06:13:59.246Z,15.24
2022-09-06T06:16:26.973Z,15.30
2022-09-06T06:18:54.951Z,15.40
2022-09-06T06:21:32.097Z,15.48
2022-09-06T06:24:05.305Z,15.50
2022-09-06T06:26:35.885Z,15.60
2022-09-06T06:29:08.068Z,15.70
2022-09-06T06:31:38.330Z,15.82
2022-09-06T06:34:06.430Z,15.92
2022-09-06T06:36:36.679Z,16.00
2022-09-06T06:39:08.542Z,16.12
2022-09-06T06:41:36.321Z,16.24
2022-09-06T06:44:05.923Z,16.30
2022-09-06T06:46:37.446Z,16.30
2022-09-06T06:49:05.645Z,16.40
2022-09-06T06:51:40.106Z,16.50
2022-09-06T06:54:07.714Z,16.60
2022-09-06T06:56:40.764Z,16.70
2022-09-06T06:59:08.512Z,16.80
2022-09-06T07:01:37.157Z,16.70
2022-09-06T07:04:05.997Z,16.70
2022-09-06T07:12:29.561Z,17.00
2022-09-06T07:14:57.236Z,17.10
2022-09-06T07:17:24.926Z,17.20
2022-09-06T07:22:41.122Z,17.40
2022-09-06T07:25:14.429Z,17.50
2022-09-06T07:30:18.129Z,17.70
2022-09-06T07:32:45.756Z,17.80
2022-09-06T07:35:14.017Z,17.90
2022-09-06T07:37:41.834Z,17.92
2022-09-06T07:40:10.583Z,18.00
2022-09-06T07:42:38.533Z,18.10
2022-09-06T07:45:06.722Z,18.20
2022-09-06T07:53:15.018Z,18.34
2022-09-06T07:55:43.505Z,18.40
2022-09-06T07:58:11.188Z,18.40
2022-09-06T08:00:41.320Z,18.50
2022-09-06T08:03:09.817Z,18.60
2022-09-06T08:11:14.590Z,18.80
2022-09-06T08:13:42.593Z,18.90
2022-09-06T08:16:12.748Z,18.94
2022-09-06T08:18:40.485Z,19.00
2022-09-06T08:21:16.690Z,19.10
2022-09-06T08:23:51.068Z,19.20
2022-09-06T08:26:22.395Z,19.24
2022-09-06T08:29:02.256Z,19.30
2022-09-06T08:31:32.673Z,19.32
2022-09-06T08:34:01.981Z,19.46
2022-09-06T08:36:30.959Z,19.50
2022-09-06T08:39:01.799Z,19.60
2022-09-06T08:42:01.471Z,19.68
2022-09-06T08:47:21.615Z,19.90
2022-09-06T08:50:07.541Z,19.90
2022-09-06T08:53:23.815Z,19.90
2022-09-06T08:56:28.227Z,20.00
2022-09-06T08:59:06.686Z,20.00
2022-09-06T09:01:56.875Z,20.10
2022-09-06T09:04:28.613Z,20.10
2022-09-06T09:07:12.450Z,20.10
2022-09-06T09:09:40.098Z,20.10
2022-09-06T09:12:11.989Z,20.20
2022-09-06T09:14:44.045Z,20.20
2022-09-06T09:17:32.061Z,20.20
2022-09-06T09:19:59.760Z,20.20
2022-09-06T09:22:28.030Z,20.20
2022-09-06T09:25:00.246Z,20.20
2022-09-06T09:27:29.583Z,20.20
2022-09-06T09:32:53.883Z,20.20
2022-09-06T09:35:40.993Z,20.20
2022-09-06T09:38:12.095Z,20.20
2022-09-06T09:40:50.853Z,20.20
2022-09-06T09:43:31.019Z,20.20
2022-09-06T09:46:30.454Z,20.20
2022-09-06T09:49:10.446Z,20.20
2022-09-06T09:51:45.255Z,20.30
2022-09-06T09:54:29.462Z,20.30
2022-09-06T09:56:58.126Z,20.38
2022-09-06T09:59:31.992Z,20.40
2022-09-06T10:02:03.019Z,20.30
2022-09-06T10:04:44.965Z,20.30
2022-09-06T10:07:24.853Z,20.20
2022-09-06T10:10:13.158Z,20.20
2022-09-06T10:12:43.124Z,20.20
2022-09-06T10:15:33.494Z,20.20
2022-09-06T10:18:01.331Z,20.20
2022-09-06T10:20:43.999Z,20.20
2022-09-06T10:27:02.105Z,20.30
2022-09-06T10:29:50.326Z,20.30
2022-09-06T10:32:38.483Z,20.38
2022-09-06T10:35:20.797Z,20.40
2022-09-06T10:38:16.263Z,20.38
2022-09-06T10:41:11.514Z,20.34
2022-09-06T10:44:06.420Z,20.40
2022-09-06T10:46:36.731Z,20.40
2022-09-06T10:49:09.664Z,20.50
2022-09-06T10:52:01.494Z,20.50
2022-09-06T10:54:33.533Z,20.50
2022-09-06T11:00:24.049Z,20.40
2022-09-06T11:06:18.313Z,20.50
2022-09-06T11:08:58.499Z,20.50
2022-09-06T11:11:42.780Z,20.60
2022-09-06T11:14:15.684Z,20.60
2022-09-06T11:17:41.081Z,20.60
2022-09-06T11:20:32.151Z,20.70
2022-09-06T11:23:13.586Z,20.84
2022-09-06T11:26:22.857Z,21.00
2022-09-06T11:29:23.649Z,21.00
2022-09-06T11:34:56.262Z,20.90
2022-09-06T11:37:44.647Z,20.82
2022-09-06T11:40:27.031Z,20.80
2022-09-06T11:42:55.971Z,20.76
2022-09-06T11:45:52.792Z,20.70
2022-09-06T11:48:35.464Z,20.68
2022-09-06T11:51:11.136Z,20.60
2022-09-06T11:53:50.941Z,20.54
2022-09-06T11:56:35.562Z,20.50
2022-09-06T11:59:38.065Z,20.50
2022-09-06T12:02:32.380Z,20.50
2022-09-06T12:05:07.046Z,20.40
2022-09-06T12:07:37.862Z,20.40
2022-09-06T12:10:30.421Z,20.46
2022-09-06T12:12:59.024Z,20.50
2022-09-06T12:15:33.120Z,20.50
2022-09-06T12:18:00.989Z,20.60
2022-09-06T12:20:54.873Z,20.60
2022-09-06T12:23:34.546Z,20.60
2022-09-06T12:26:09.939Z,20.60
2022-09-06T12:28:42.326Z,20.60
2022-09-06T12:31:34.828Z,20.60
2022-09-06T12:34:31.415Z,20.60
2022-09-06T12:37:04.689Z,20.70
2022-09-06T12:39:34.361Z,20.80
2022-09-06T12:42:05.711Z,20.80
2022-09-06T12:44:45.330Z,20.90
2022-09-06T12:47:29.223Z,20.90
2022-09-06T12:50:26.070Z,20.90
2022-09-06T12:52:59.309Z,20.90
2022-09-06T12:55:38.658Z,20.90
2022-09-06T12:58:11.026Z,20.90
2022-09-06T13:00:53.214Z,20.80
2022-09-06T13:03:41.392Z,20.80
2022-09-06T13:06:22.141Z,20.74
2022-09-06T13:09:03.670Z,20.70
2022-09-06T13:11:47.685Z,20.70
2022-09-06T13:14:31.513Z,20.60
2022-09-06T13:17:01.129Z,20.60
2022-09-06T13:19:46.781Z,20.60
2022-09-06T13:22:46.262Z,20.56
2022-09-06T13:25:20.683Z,20.50
2022-09-06T13:27:51.960Z,20.50
2022-09-06T13:31:08.560Z,20.50
2022-09-06T13:33:37.874Z,20.50
2022-09-06T13:36:12.373Z,20.50
2022-09-06T13:38:43.481Z,20.50
2022-09-06T13:41:26.215Z,20.50
2022-09-06T13:44:18.620Z,20.50
2022-09-06T13:46:46.999Z,20.50
2022-09-06T13:49:14.755Z,20.50
2022-09-06T13:51:43.349Z,20.50
2022-09-06T13:54:14.342Z,20.50
2022-09-06T13:56:44.812Z,20.56
2022-09-06T13:59:12.937Z,20.60
2022-09-06T14:01:44.756Z,20.70
2022-09-06T14:04:15.866Z,20.70
2022-09-06T14:06:43.717Z,20.80
2022-09-06T14:09:11.529Z,20.80
2022-09-06T14:11:39.324Z,20.90
2022-09-06T14:14:06.976Z,20.90
2022-09-06T14:16:34.659Z,20.90
2022-09-06T14:19:04.411Z,20.90
2022-09-06T14:21:32.614Z,20.90
2022-09-06T14:24:04.115Z,21.00
2022-09-06T14:26:33.107Z,21.00
2022-09-06T14:29:01.118Z,21.00
2022-09-06T14:31:29.952Z,21.00
2022-09-06T14:33:58.322Z,21.00
2022-09-06T14:36:29.638Z,21.00
2022-09-06T14:39:03.921Z,20.90
2022-09-06T14:41:31.945Z,20.90
2022-09-06T14:44:00.019Z,20.90
2022-09-06T14:46:28.808Z,20.80
2022-09-06T14:49:00.597Z,20.80
2022-09-06T14:51:30.152Z,20.80
2022-09-06T14:54:04.251Z,20.76
2022-09-06T14:56:32.112Z,20.76
2022-09-06T14:59:00.487Z,20.70
2022-09-06T15:01:35.770Z,20.70
2022-09-06T15:04:09.968Z,20.70
2022-09-06T15:06:41.199Z,20.68
2022-09-06T15:09:11.290Z,20.60
2022-09-06T15:11:46.678Z,20.60
2022-09-06T15:14:27.031Z,20.58
2022-09-06T15:16:58.031Z,20.50
2022-09-06T15:19:28.896Z,20.50
2022-09-06T15:21:58.001Z,20.40
2022-09-06T15:24:26.095Z,20.40
2022-09-06T15:26:53.731Z,20.32
2022-09-06T15:29:21.441Z,20.30
2022-09-06T15:31:50.746Z,20.30
2022-09-06T15:34:24.492Z,20.30
2022-09-06T15:36:53.497Z,20.20
2022-09-06T15:39:21.250Z,20.20
2022-09-06T15:41:50.808Z,20.20
2022-09-06T15:44:21.619Z,20.14
2022-09-06T15:46:54.464Z,20.10
2022-09-06T15:49:31.227Z,20.10
2022-09-06T15:52:02.354Z,20.00
2022-09-06T15:54:49.392Z,20.00
2022-09-06T15:57:17.627Z,19.90
2022-09-06T15:59:45.955Z,19.90
2022-09-06T16:02:14.186Z,19.90
2022-09-06T16:04:41.926Z,19.80
2022-09-06T16:07:10.128Z,19.80
2022-09-06T16:09:38.512Z,19.80
2022-09-06T16:12:06.320Z,19.70
2022-09-06T16:14:34.936Z,19.70
2022-09-06T16:17:02.736Z,19.64
2022-09-06T16:19:30.686Z,19.60
2022-09-06T16:21:59.270Z,19.60
2022-09-06T16:24:27.063Z,19.60
2022-09-06T16:26:54.808Z,19.58
2022-09-06T16:29:22.483Z,19.50
2022-09-06T16:31:50.589Z,19.50
2022-09-06T16:34:18.219Z,19.50
2022-09-06T16:36:45.766Z,19.40
2022-09-06T16:39:13.429Z,19.40
2022-09-06T16:41:45.686Z,19.30
2022-09-06T16:44:17.644Z,19.30
2022-09-06T16:46:50.235Z,19.30
2022-09-06T16:49:19.340Z,19.22
2022-09-06T16:51:49.985Z,19.20
2022-09-06T16:54:19.277Z,19.20
2022-09-06T16:56:47.631Z,19.10
2022-09-06T16:59:17.085Z,19.10
2022-09-06T17:01:45.717Z,19.00
2022-09-06T17:04:13.564Z,19.00
2022-09-06T17:06:45.543Z,18.90
2022-09-06T17:09:19.963Z,18.90
2022-09-06T17:11:50.080Z,18.90
2022-09-06T17:14:18.864Z,18.80
2022-09-06T17:17:05.041Z,18.80
2022-09-06T17:19:42.080Z,18.80
2022-09-06T17:22:13.182Z,18.70
2022-09-06T17:24:41.641Z,18.70
2022-09-06T17:27:10.381Z,18.60
2022-09-06T17:29:39.941Z,18.60
2022-09-06T17:32:10.224Z,18.50
2022-09-06T17:34:40.310Z,18.46
2022-09-06T17:37:08.144Z,18.40
2022-09-06T17:39:36.155Z,18.30
2022-09-06T17:42:05.303Z,18.30
2022-09-06T17:44:33.609Z,18.20
2022-09-06T17:47:12.590Z,18.20
2022-09-06T17:49:42.516Z,18.10
2022-09-06T17:52:11.585Z,18.10
2022-09-06T17:54:39.444Z,18.00
2022-09-06T17:57:07.190Z,18.00
2022-09-06T17:59:36.018Z,17.98
2022-09-06T18:02:05.483Z,17.90
2022-09-06T18:04:33.552Z,17.90
2022-09-06T18:07:01.386Z,17.86
2022-09-06T18:09:29.280Z,17.80
2022-09-06T18:11:58.358Z,17.78
2022-09-06T18:14:28.886Z,17.70
2022-09-06T18:16:57.000Z,17.70
2022-09-06T18:19:27.011Z,17.60
2022-09-06T18:21:57.210Z,17.60
2022-09-06T18:24:25.069Z,17.58
2022-09-06T18:26:52.830Z,17.50
2022-09-06T18:29:21.261Z,17.50
2022-09-06T18:31:49.743Z,17.50
2022-09-06T18:34:19.054Z,17.40
2022-09-06T18:36:47.173Z,17.40
2022-09-06T18:39:16.294Z,17.34
2022-09-06T18:42:04.219Z,17.30
2022-09-06T18:44:34.558Z,17.30
2022-09-06T18:47:06.868Z,17.30
2022-09-06T18:49:38.531Z,17.30
2022-09-06T18:52:08.881Z,17.28
2022-09-06T18:54:37.029Z,17.20
2022-09-06T18:57:05.196Z,17.10
2022-09-06T18:59:33.341Z,17.10
2022-09-06T19:02:01.733Z,17.10
2022-09-06T19:04:30.087Z,17.00
2022-09-06T19:07:05.593Z,17.00
2022-09-06T19:09:33.865Z,17.00
2022-09-06T19:12:03.772Z,17.00
2022-09-06T19:14:33.969Z,17.00
2022-09-06T19:17:02.347Z,17.00
2022-09-06T19:19:30.534Z,17.00
2022-09-06T19:21:58.849Z,17.00
2022-09-06T19:24:27.023Z,17.00
2022-09-06T19:26:55.939Z,16.94
2022-09-06T19:29:24.404Z,16.90
2022-09-06T19:31:53.244Z,16.90
2022-09-06T19:34:22.191Z,16.90
2022-09-06T19:36:52.216Z,16.90
2022-09-06T19:39:21.556Z,16.80
2022-09-06T19:41:49.504Z,16.82
2022-09-06T19:44:17.777Z,16.80
2022-09-06T19:46:47.019Z,16.80
2022-09-06T19:49:19.943Z,16.80
2022-09-06T19:51:49.056Z,16.80
2022-09-06T19:54:17.803Z,16.80
2022-09-06T19:56:46.603Z,16.80
2022-09-06T19:59:17.795Z,16.80
2022-09-06T20:01:47.694Z,16.80
2022-09-06T20:04:16.125Z,16.76
2022-09-06T20:06:43.881Z,16.70
2022-09-06T20:09:12.022Z,16.70
2022-09-06T20:11:41.219Z,16.70
2022-09-06T20:14:11.413Z,16.70
2022-09-06T20:16:42.196Z,16.70
2022-09-06T20:19:12.650Z,16.62
2022-09-06T20:21:41.125Z,16.60
2022-09-06T20:24:09.174Z,16.60
2022-09-06T20:26:37.881Z,16.60
2022-09-06T20:29:06.502Z,16.60
2022-09-06T20:31:37.115Z,16.60
2022-09-06T20:34:07.037Z,16.60
2022-09-06T20:36:34.897Z,16.50
2022-09-06T20:39:02.953Z,16.50
2022-09-06T20:41:31.492Z,16.50
2022-09-06T20:43:59.879Z,16.44
2022-09-06T20:46:35.425Z,16.40
2022-09-06T20:49:05.122Z,16.40
2022-09-06T20:51:36.484Z,16.40
2022-09-06T20:54:05.478Z,16.40
2022-09-06T20:56:37.606Z,16.40
2022-09-06T20:59:12.236Z,16.40
2022-09-06T21:01:44.364Z,16.40
2022-09-06T21:04:15.702Z,16.40
2022-09-06T21:06:45.891Z,16.36
2022-09-06T21:09:14.986Z,16.30
2022-09-06T21:11:43.335Z,16.30
2022-09-06T21:14:12.669Z,16.30
2022-09-06T21:16:41.304Z,16.26
2022-09-06T21:19:11.509Z,16.20
2022-09-06T21:21:40.098Z,16.20
2022-09-06T21:24:09.640Z,16.20
2022-09-06T21:26:38.096Z,16.20
2022-09-06T21:29:05.842Z,16.10
2022-09-06T21:31:37.021Z,16.10
2022-09-06T21:34:15.642Z,16.10
2022-09-06T21:36:44.967Z,16.10
2022-09-06T21:39:13.173Z,16.10
2022-09-06T21:41:43.413Z,16.10
2022-09-06T21:44:12.139Z,16.02
2022-09-06T21:46:41.015Z,16.00
2022-09-06T21:49:12.060Z,16.00
2022-09-06T21:51:41.389Z,16.00
2022-09-06T21:54:09.856Z,16.00
2022-09-06T21:56:39.138Z,16.00
2022-09-06T21:59:08.119Z,15.90
2022-09-06T22:01:37.459Z,15.90
2022-09-06T22:04:06.141Z,15.90
2022-09-06T22:06:37.031Z,15.88
2022-09-06T22:09:12.862Z,15.80
2022-09-06T22:11:43.767Z,15.80
2022-09-06T22:14:14.371Z,15.72
2022-09-06T22:16:42.563Z,15.70
2022-09-06T22:19:11.527Z,15.70
2022-09-06T22:21:39.363Z,15.70
2022-09-06T22:24:11.237Z,15.68
2022-09-06T22:26:40.942Z,15.60
2022-09-06T22:29:11.283Z,15.60
2022-09-06T22:31:40.405Z,15.50
2022-09-06T22:34:09.188Z,15.50
2022-09-06T22:36:36.801Z,15.50
2022-09-06T22:39:05.165Z,15.50
2022-09-06T22:41:34.153Z,15.50
2022-09-06T22:44:03.159Z,15.44
2022-09-06T22:46:31.727Z,15.40
2022-09-06T22:48:59.901Z,15.40
2022-09-06T22:51:27.677Z,15.30
2022-09-06T22:53:55.384Z,15.30
2022-09-06T22:56:23.397Z,15.30
2022-09-06T22:58:51.049Z,15.26
2022-09-06T23:01:18.729Z,15.20
2022-09-06T23:03:48.108Z,15.20
2022-09-06T23:06:16.192Z,15.10
2022-09-06T23:08:43.796Z,15.10
2022-09-06T23:11:15.783Z,15.10
2022-09-06T23:13:44.600Z,15.04
2022-09-06T23:16:17.948Z,15.00
2022-09-06T23:18:47.419Z,15.00
2022-09-06T23:21:19.751Z,15.00
2022-09-06T23:23:50.636Z,15.00
2022-09-06T23:26:23.501Z,14.98
2022-09-06T23:28:56.689Z,14.90
2022-09-06T23:31:31.561Z,14.90
2022-09-06T23:34:02.524Z,14.90
2022-09-06T23:36:31.118Z,14.90
2022-09-06T23:38:58.992Z,14.82
2022-09-06T23:41:26.586Z,14.80
2022-09-06T23:43:54.498Z,14.80
2022-09-06T23:46:22.232Z,14.80
2022-09-06T23:48:49.940Z,14.70
2022-09-06T23:51:18.074Z,14.70
2022-09-06T23:53:45.824Z,14.64
2022-09-06T23:56:13.604Z,14.60
2022-09-06T23:58:41.587Z,14.60
